Time;durP1;ratioP1;P1;durP2;ratioP2;P2;SDS_P1;SDS_P2;PMS_P1;PMS_P2;Temp;Humidity;BMP_temperature;BMP_pressure;BME280_temperature;BME280_humidity;BME280_pressure;Samples;Min_cycle;Max_cycle;Signal;HPM_P1;HPM_P2
2021/07/02 00:01:42;;;;;;;59.08;30.85;;;13.00;99.90;;;;;;5033012;28;20037;-61
2021/07/02 00:04:08;;;;;;;68.07;29.95;;;13.00;99.90;;;;;;5029173;28;20024;-64
2021/07/02 00:06:34;;;;;;;56.72;28.58;;;13.00;99.90;;;;;;5028884;28;20430;-65
2021/07/02 00:09:00;;;;;;;63.30;30.50;;;13.00;99.90;;;;;;5030662;28;20498;-64
2021/07/02 00:11:25;;;;;;;65.63;27.20;;;13.00;99.90;;;;;;5018537;28;20037;-65
2021/07/02 00:13:51;;;;;;;55.28;28.73;;;13.00;99.90;;;;;;5028578;28;20406;-64
2021/07/02 00:16:17;;;;;;;58.05;28.52;;;13.00;99.90;;;;;;5035519;28;20709;-64
2021/07/02 00:18:42;;;;;;;69.97;29.48;;;13.10;99.90;;;;;;5027834;28;20056;-64
2021/07/02 00:21:09;;;;;;;59.60;29.13;;;13.10;99.90;;;;;;5038795;28;20021;-65
2021/07/02 00:23:34;;;;;;;63.30;28.05;;;13.10;99.90;;;;;;5031890;28;20135;-64
2021/07/02 00:26:00;;;;;;;56.83;27.80;;;13.10;99.90;;;;;;5036763;28;20040;-64
2021/07/02 00:28:25;;;;;;;63.38;30.13;;;13.00;99.90;;;;;;5027202;28;20058;-65
2021/07/02 00:30:52;;;;;;;59.47;27.92;;;13.10;99.90;;;;;;5033740;28;20029;-65
2021/07/02 00:33:18;;;;;;;66.60;30.92;;;13.10;99.90;;;;;;5038735;28;20029;-59
2021/07/02 00:35:43;;;;;;;57.20;29.13;;;13.10;99.90;;;;;;5034016;28;20041;-58
2021/07/02 00:38:09;;;;;;;57.80;28.77;;;13.10;99.90;;;;;;5037883;28;20017;-65
2021/07/02 00:40:35;;;;;;;59.33;26.45;;;13.10;99.90;;;;;;5027884;28;20093;-64
2021/07/02 00:43:01;;;;;;;64.57;28.45;;;13.00;99.90;;;;;;5030764;28;20063;-65
2021/07/02 00:45:27;;;;;;;55.45;29.00;;;13.10;99.90;;;;;;5027336;28;20087;-64
2021/07/02 00:47:52;;;;;;;58.90;29.30;;;13.00;99.90;;;;;;5026721;28;20029;-64
2021/07/02 00:50:18;;;;;;;68.75;30.23;;;13.10;99.90;;;;;;5030744;28;20402;-65
2021/07/02 00:52:44;;;;;;;63.53;29.17;;;13.10;99.90;;;;;;5024545;28;20088;-64
2021/07/02 00:55:10;;;;;;;66.07;29.75;;;13.10;99.90;;;;;;5029112;28;20530;-65
2021/07/02 00:57:37;;;;;;;61.88;28.75;;;13.10;99.90;;;;;;5021793;28;20109;-65
2021/07/02 01:00:06;;;;;;;67.32;29.77;;;13.10;99.90;;;;;;5030167;28;20034;-64
2021/07/02 01:02:32;;;;;;;60.08;29.67;;;13.10;99.90;;;;;;5023356;28;20030;-65
2021/07/02 01:04:57;;;;;;;64.43;30.85;;;13.10;99.90;;;;;;5037286;28;20147;-64
2021/07/02 01:07:23;;;;;;;64.10;30.35;;;13.10;99.90;;;;;;5026890;28;20482;-64
2021/07/02 01:09:48;;;;;;;63.45;29.95;;;13.10;99.90;;;;;;5021162;28;20056;-65
2021/07/02 01:12:14;;;;;;;76.35;32.50;;;13.10;99.90;;;;;;5027861;28;20068;-65
2021/07/02 01:14:40;;;;;;;70.13;30.08;;;13.10;99.90;;;;;;5025359;28;20031;-64
2021/07/02 01:17:06;;;;;;;72.53;30.52;;;13.10;99.90;;;;;;5028269;28;20060;-59
2021/07/02 01:19:31;;;;;;;70.85;30.88;;;13.10;99.90;;;;;;5026080;28;20509;-65
2021/07/02 01:21:57;;;;;;;75.78;31.27;;;13.00;99.90;;;;;;5029460;28;20025;-64
2021/07/02 01:24:23;;;;;;;65.38;30.25;;;13.00;99.90;;;;;;5027255;28;20018;-64
2021/07/02 01:26:50;;;;;;;76.05;32.55;;;13.00;99.90;;;;;;5026494;28;20386;-65
2021/07/02 01:29:16;;;;;;;74.55;31.95;;;13.00;99.90;;;;;;5027372;28;20171;-65
2021/07/02 01:31:42;;;;;;;64.97;30.58;;;13.00;99.90;;;;;;5024345;28;20022;-64
2021/07/02 01:34:07;;;;;;;73.32;31.65;;;13.10;99.90;;;;;;5029548;28;20391;-64
2021/07/02 01:36:33;;;;;;;91.75;34.42;;;13.10;99.90;;;;;;5026370;28;20041;-64
2021/07/02 01:38:59;;;;;;;79.97;33.28;;;13.00;99.90;;;;;;5028153;28;20168;-65
2021/07/02 01:41:24;;;;;;;84.82;33.83;;;13.10;99.90;;;;;;5026293;28;20033;-64
2021/07/02 01:43:50;;;;;;;81.90;32.67;;;13.00;99.90;;;;;;5027104;28;20112;-64
2021/07/02 01:46:16;;;;;;;75.07;32.25;;;13.00;99.90;;;;;;5027633;28;20025;-62
2021/07/02 01:48:43;;;;;;;77.97;32.55;;;13.00;99.90;;;;;;5023534;28;20029;-65
2021/07/02 01:51:08;;;;;;;80.65;31.40;;;13.10;99.90;;;;;;5029083;28;20041;-63
2021/07/02 01:53:34;;;;;;;76.03;34.90;;;13.10;99.90;;;;;;5025932;28;20033;-65
2021/07/02 01:56:00;;;;;;;67.80;32.47;;;13.00;99.90;;;;;;5027380;28;20029;-64
2021/07/02 01:58:25;;;;;;;74.20;31.75;;;13.10;99.90;;;;;;5021698;28;20030;-64
2021/07/02 02:00:51;;;;;;;65.85;30.48;;;13.10;99.90;;;;;;5026720;28;20036;-65
2021/07/02 02:03:16;;;;;;;68.20;32.30;;;13.00;99.90;;;;;;5029062;28;20022;-64
2021/07/02 02:05:42;;;;;;;70.68;31.15;;;13.10;99.90;;;;;;5025838;28;20030;-64
2021/07/02 02:08:08;;;;;;;72.57;32.63;;;13.10;99.90;;;;;;5027911;28;20021;-65
2021/07/02 02:10:35;;;;;;;78.07;33.30;;;13.10;99.90;;;;;;5024485;28;20557;-64
2021/07/02 02:13:00;;;;;;;69.07;30.55;;;13.00;99.90;;;;;;5026392;28;20650;-64
2021/07/02 02:15:26;;;;;;;72.60;32.15;;;13.10;99.90;;;;;;5029973;28;20032;-65
2021/07/02 02:17:52;;;;;;;68.55;30.90;;;13.10;99.90;;;;;;5021318;28;20026;-64
2021/07/02 02:20:18;;;;;;;78.20;31.35;;;13.10;99.90;;;;;;5028894;28;20398;-65
2021/07/02 02:22:43;;;;;;;77.25;32.50;;;13.10;99.90;;;;;;5028170;28;20083;-64
2021/07/02 02:25:10;;;;;;;70.53;31.25;;;13.00;99.90;;;;;;5031974;28;20433;-62
2021/07/02 02:27:36;;;;;;;79.60;32.60;;;13.10;99.90;;;;;;5024671;28;20033;-64
2021/07/02 02:30:04;;;;;;;70.78;31.40;;;13.00;99.90;;;;;;5030851;28;20044;-64
2021/07/02 02:32:29;;;;;;;77.05;31.75;;;13.00;99.90;;;;;;5033224;28;20040;-65
2021/07/02 02:34:55;;;;;;;74.97;31.95;;;13.10;99.90;;;;;;5029928;28;20379;-64
2021/07/02 02:37:20;;;;;;;74.53;31.15;;;13.10;99.90;;;;;;5032187;28;20041;-65
2021/07/02 02:39:46;;;;;;;72.97;33.08;;;13.10;99.90;;;;;;5029075;28;20033;-64
2021/07/02 02:42:12;;;;;;;77.80;31.35;;;13.00;99.90;;;;;;5031200;28;20479;-64
2021/07/02 02:44:37;;;;;;;72.53;31.08;;;13.00;99.90;;;;;;5033434;28;20602;-64
2021/07/02 02:47:03;;;;;;;74.32;32.00;;;13.00;99.90;;;;;;5030547;28;20076;-64
2021/07/02 02:49:29;;;;;;;77.07;31.08;;;13.00;99.90;;;;;;5032878;28;20026;-65
2021/07/02 02:51:54;;;;;;;81.40;31.88;;;13.00;99.90;;;;;;5029900;28;20032;-65
2021/07/02 02:54:20;;;;;;;67.82;31.13;;;13.10;99.90;;;;;;5031642;28;20041;-65
2021/07/02 02:57:04;;;;;;;63.95;29.73;;;13.10;99.90;;;;;;5032376;28;20033;-65
2021/07/02 02:59:30;;;;;;;77.40;32.28;;;13.10;99.90;;;;;;5025966;28;20504;-64
2021/07/02 03:01:55;;;;;;;82.25;34.45;;;13.10;99.90;;;;;;5029900;28;20052;-64
2021/07/02 03:04:21;;;;;;;95.10;33.72;;;13.00;99.90;;;;;;5031740;28;20035;-64
2021/07/02 03:06:47;;;;;;;85.32;32.85;;;13.00;99.90;;;;;;5028553;28;20071;-64
2021/07/02 03:09:12;;;;;;;81.97;32.60;;;13.00;99.90;;;;;;5030696;28;20482;-64
2021/07/02 03:11:38;;;;;;;77.40;31.80;;;13.00;99.90;;;;;;5027399;28;20025;-64
2021/07/02 03:14:03;;;;;;;76.10;32.78;;;13.00;99.90;;;;;;5030551;28;20429;-65
2021/07/02 03:16:31;;;;;;;129.73;35.42;;;13.00;99.90;;;;;;5038559;28;20032;-65
2021/07/02 03:18:56;;;;;;;94.03;34.42;;;13.00;99.90;;;;;;5042434;28;20444;-64
2021/07/02 03:21:22;;;;;;;81.50;33.13;;;13.00;99.90;;;;;;5040381;28;20101;-64
2021/07/02 03:23:47;;;;;;;85.30;33.65;;;12.90;99.90;;;;;;5032349;28;20025;-65
2021/07/02 03:26:16;;;;;;;86.75;33.60;;;13.00;99.90;;;;;;5034542;28;20069;-65
2021/07/02 03:28:42;;;;;;;80.18;34.35;;;13.00;99.90;;;;;;5029708;28;20044;-65
2021/07/02 03:31:07;;;;;;;86.05;33.92;;;12.90;99.90;;;;;;5036468;28;20494;-60
2021/07/02 03:33:33;;;;;;;72.78;30.88;;;12.90;99.90;;;;;;5040303;28;20034;-65
2021/07/02 03:35:58;;;;;;;67.55;30.10;;;12.90;99.90;;;;;;5033560;28;20355;-64
2021/07/02 03:38:24;;;;;;;66.03;29.98;;;12.90;99.90;;;;;;5038504;28;20466;-65
2021/07/02 03:40:49;;;;;;;75.00;28.75;;;12.90;99.90;;;;;;5032058;28;20113;-64
2021/07/02 03:43:16;;;;;;;67.60;29.52;;;13.00;99.90;;;;;;5036591;28;20032;-65
2021/07/02 03:45:42;;;;;;;70.78;29.83;;;13.00;99.90;;;;;;5030125;28;20125;-65
2021/07/02 03:48:07;;;;;;;60.85;27.85;;;13.00;99.90;;;;;;5035353;28;20108;-65
2021/07/02 03:50:33;;;;;;;60.60;26.08;;;13.00;99.90;;;;;;5038804;28;20032;-64
2021/07/02 03:52:58;;;;;;;56.92;25.63;;;13.00;99.90;;;;;;5033074;28;20033;-66
2021/07/02 03:55:24;;;;;;;67.28;27.17;;;13.00;99.90;;;;;;5039563;28;20208;-64
2021/07/02 03:57:49;;;;;;;64.63;26.33;;;13.00;99.90;;;;;;5031053;28;20494;-65
2021/07/02 04:00:15;;;;;;;54.45;26.40;;;13.00;99.90;;;;;;5032410;28;20108;-64
2021/07/02 04:02:41;;;;;;;56.13;26.08;;;13.00;99.90;;;;;;5035657;28;20135;-64
2021/07/02 04:05:07;;;;;;;231.90;33.80;;;13.00;99.90;;;;;;5044909;28;20489;-62
2021/07/02 04:07:33;;;;;;;79.60;28.00;;;13.10;99.90;;;;;;5041351;28;20132;-65
2021/07/02 04:09:58;;;;;;;61.40;26.80;;;13.10;99.90;;;;;;5043481;28;20100;-64
2021/07/02 04:12:24;;;;;;;68.95;26.10;;;13.10;99.90;;;;;;5019882;28;20029;-65
2021/07/02 04:14:50;;;;;;;114.53;28.95;;;13.20;99.90;;;;;;5038010;28;20067;-65
2021/07/02 04:17:16;;;;;;;306.58;31.20;;;13.20;99.90;;;;;;5023962;28;20131;-64
2021/07/02 04:19:41;;;;;;;133.13;26.90;;;13.20;99.90;;;;;;5031312;28;20606;-65
2021/07/02 04:22:08;;;;;;;53.97;25.67;;;13.30;99.90;;;;;;5029822;28;20438;-65
2021/07/02 04:24:34;;;;;;;50.55;21.80;;;13.30;99.90;;;;;;5028719;28;20026;-65
2021/07/02 04:27:00;;;;;;;48.15;23.25;;;13.40;99.90;;;;;;5030166;28;20037;-60
2021/07/02 04:29:26;;;;;;;34.92;20.67;;;13.40;99.90;;;;;;5025885;28;20033;-65
2021/07/02 04:31:52;;;;;;;37.80;21.00;;;13.50;99.90;;;;;;5031457;28;20018;-64
2021/07/02 04:34:18;;;;;;;26.77;17.63;;;13.60;99.90;;;;;;5010743;28;20029;-64
2021/07/02 04:36:45;;;;;;;29.88;19.90;;;13.70;99.90;;;;;;5031124;28;20439;-65
2021/07/02 04:39:10;;;;;;;33.05;18.20;;;13.80;99.90;;;;;;5028896;28;20100;-61
2021/07/02 04:41:37;;;;;;;31.55;17.33;;;14.00;99.90;;;;;;5028297;28;20112;-65
2021/07/02 04:44:03;;;;;;;23.67;16.20;;;14.30;99.90;;;;;;5030554;28;20026;-65
2021/07/02 04:46:29;;;;;;;30.10;15.90;;;14.80;99.90;;;;;;5026273;28;20136;-65
2021/07/02 04:48:54;;;;;;;23.80;14.05;;;15.40;99.90;;;;;;5030782;28;20104;-65
2021/07/02 04:51:20;;;;;;;20.08;13.30;;;15.70;99.90;;;;;;5028483;28;20050;-65
2021/07/02 04:53:45;;;;;;;22.30;13.48;;;15.90;99.90;;;;;;5030556;28;20046;-65
2021/07/02 04:56:12;;;;;;;21.13;13.63;;;16.10;99.90;;;;;;5028231;28;20421;-65
2021/07/02 04:58:43;;;;;;;24.00;15.55;;;15.80;99.90;;;;;;5024668;28;20060;-65
2021/07/02 05:01:09;;;;;;;143.07;16.08;;;15.60;99.90;;;;;;5030330;28;20085;-60
2021/07/02 05:03:35;;;;;;;184.38;18.10;;;15.50;99.90;;;;;;5030455;28;20018;-65
2021/07/02 05:06:06;;;;;;;223.85;16.80;;;15.10;99.90;;;;;;5021769;28;20398;-65
2021/07/02 05:08:32;;;;;;;219.10;18.30;;;15.00;99.90;;;;;;5030190;28;20096;-65
2021/07/02 05:10:57;;;;;;;355.85;23.15;;;14.80;99.90;;;;;;5033344;28;20068;-64
2021/07/02 05:13:23;;;;;;;123.90;17.73;;;14.60;99.90;;;;;;5029150;28;20493;-65
2021/07/02 05:15:49;;;;;;;35.90;17.13;;;14.30;99.90;;;;;;5030365;28;20021;-65
2021/07/02 05:18:15;;;;;;;105.05;15.70;;;14.20;99.90;;;;;;5019461;28;20072;-65
2021/07/02 05:20:45;;;;;;;140.07;16.20;;;14.00;99.90;;;;;;5027950;28;20021;-65
2021/07/02 05:23:12;;;;;;;236.05;17.17;;;14.00;99.90;;;;;;5029991;28;20009;-63
2021/07/02 05:25:38;;;;;;;50.88;13.90;;;14.20;99.90;;;;;;5030350;28;20029;-65
2021/07/02 05:28:04;;;;;;;69.28;11.80;;;14.80;99.90;;;;;;5028216;28;20051;-65
2021/07/02 05:30:29;;;;;;;38.70;11.55;;;15.40;99.90;;;;;;5030208;28;20478;-65
2021/07/02 05:32:55;;;;;;;16.38;10.77;;;16.00;99.90;;;;;;5030217;28;20075;-65
2021/07/02 05:35:21;;;;;;;17.10;10.13;;;16.80;99.90;;;;;;5026291;28;20109;-65
2021/07/02 05:37:46;;;;;;;13.55;10.02;;;17.60;99.90;;;;;;5029754;28;20493;-65
2021/07/02 05:40:14;;;;;;;19.38;10.70;;;18.50;99.90;;;;;;5028620;28;20076;-63
2021/07/02 05:42:40;;;;;;;13.48;9.02;;;19.00;99.90;;;;;;5027747;28;20526;-63
2021/07/02 05:45:07;;;;;;;15.95;9.35;;;19.60;99.90;;;;;;5029014;28;20029;-64
2021/07/02 05:47:50;;;;;;;15.88;9.23;;;20.30;99.90;;;;;;5029795;28;20025;-64
2021/07/02 05:50:19;;;;;;;12.45;9.48;;;20.80;99.90;;;;;;5028839;28;20017;-64
2021/07/02 05:52:46;;;;;;;15.20;8.70;;;22.00;99.90;;;;;;5029964;28;20431;-64
2021/07/02 05:55:13;;;;;;;11.38;8.45;;;22.40;99.90;;;;;;5029854;28;20466;-63
2021/07/02 05:57:41;;;;;;;35.45;9.32;;;22.30;99.90;;;;;;5031770;28;20029;-64
2021/07/02 06:00:10;;;;;;;27.40;10.35;;;21.80;99.90;;;;;;5032546;28;20375;-63
2021/07/02 06:02:36;;;;;;;13.90;10.40;;;21.40;99.90;;;;;;5031835;28;20025;-63
2021/07/02 06:05:02;;;;;;;20.20;10.68;;;20.00;99.90;;;;;;5033185;28;20025;-63
2021/07/02 06:07:27;;;;;;;14.55;10.73;;;19.10;99.90;;;;;;5028190;28;20049;-63
2021/07/02 06:09:53;;;;;;;16.83;11.20;;;18.80;99.90;;;;;;5033860;28;20494;-63
2021/07/02 06:12:19;;;;;;;23.80;12.25;;;18.70;99.90;;;;;;5020054;28;20387;-63
2021/07/02 06:14:44;;;;;;;18.13;12.32;;;18.90;99.90;;;;;;5033491;28;20029;-64
2021/07/02 06:17:10;;;;;;;21.08;11.48;;;19.50;99.90;;;;;;5025512;28;20029;-58
2021/07/02 06:19:35;;;;;;;16.75;10.57;;;21.10;99.90;;;;;;5031915;28;20052;-64
2021/07/02 06:22:01;;;;;;;15.20;9.18;;;23.20;99.90;;;;;;5033139;28;20025;-64
2021/07/02 06:24:27;;;;;;;17.30;10.20;;;24.80;97.80;;;;;;5028091;28;20072;-64
2021/07/02 06:26:52;;;;;;;16.60;10.88;;;26.50;94.30;;;;;;5017979;28;20521;-64
2021/07/02 06:29:18;;;;;;;13.52;9.88;;;27.10;92.70;;;;;;5029737;28;20391;-64
2021/07/02 06:31:44;;;;;;;19.75;10.25;;;25.70;91.10;;;;;;5033130;28;20078;-64
2021/07/02 06:34:09;;;;;;;13.73;10.13;;;24.90;91.60;;;;;;5031644;28;20037;-65
2021/07/02 06:36:35;;;;;;;13.07;8.93;;;25.80;93.40;;;;;;5030341;28;20022;-65
2021/07/02 06:39:01;;;;;;;13.32;8.88;;;26.50;92.50;;;;;;5032670;28;20037;-64
2021/07/02 06:41:27;;;;;;;13.60;9.40;;;27.40;90.10;;;;;;5027294;28;20026;-65
2021/07/02 06:43:52;;;;;;;14.75;10.02;;;29.60;83.50;;;;;;5033333;28;20100;-65
2021/07/02 06:46:18;;;;;;;15.38;9.60;;;28.00;78.60;;;;;;5025050;28;20495;-64
2021/07/02 06:48:43;;;;;;;13.05;9.27;;;28.60;82.00;;;;;;5032397;28;20036;-64
2021/07/02 06:51:09;;;;;;;11.13;9.10;;;27.30;81.00;;;;;;5031462;28;20034;-61
2021/07/02 06:53:34;;;;;;;14.85;9.02;;;26.50;83.70;;;;;;5030354;28;20061;-65
2021/07/02 06:56:00;;;;;;;10.77;8.40;;;26.70;84.80;;;;;;5032345;28;20076;-64
2021/07/02 06:58:25;;;;;;;13.25;7.68;;;28.00;84.70;;;;;;5032339;28;20390;-64
2021/07/02 07:00:51;;;;;;;16.88;7.35;;;27.40;78.70;;;;;;5005619;28;20091;-65
2021/07/02 07:03:17;;;;;;;11.48;8.10;;;26.60;79.60;;;;;;5031406;28;20430;-64
2021/07/02 07:05:42;;;;;;;13.13;8.07;;;26.30;81.70;;;;;;5014744;28;20025;-64
2021/07/02 07:08:09;;;;;;;9.63;7.05;;;26.10;79.30;;;;;;5031309;28;20029;-65
2021/07/02 07:10:36;;;;;;;9.27;5.57;;;26.00;80.30;;;;;;5031081;28;20021;-63
2021/07/02 07:13:05;;;;;;;8.48;6.07;;;26.50;80.10;;;;;;5025363;28;20037;-65
2021/07/02 07:15:31;;;;;;;11.02;6.07;;;27.20;78.80;;;;;;5031488;28;20100;-65
2021/07/02 07:17:56;;;;;;;9.88;6.55;;;27.30;77.00;;;;;;5024193;28;20542;-65
2021/07/02 07:20:22;;;;;;;8.68;5.20;;;27.00;76.90;;;;;;5029998;28;20018;-65
2021/07/02 07:22:48;;;;;;;13.43;5.45;;;28.20;77.90;;;;;;5014020;28;20477;-64
2021/07/02 07:25:15;;;;;;;7.07;5.28;;;28.10;73.80;;;;;;5029959;28;20037;-64
2021/07/02 07:27:44;;;;;;;7.22;4.88;;;28.00;72.20;;;;;;5025229;28;20025;-64
2021/07/02 07:30:10;;;;;;;8.75;5.60;;;27.80;73.30;;;;;;5030013;28;20025;-64
2021/07/02 07:32:37;;;;;;;7.82;5.03;;;27.50;74.90;;;;;;5030943;28;20021;-65
2021/07/02 07:35:19;;;;;;;6.57;4.97;;;29.60;73.50;;;;;;5032962;28;20045;-65
2021/07/02 07:37:47;;;;;;;10.20;5.20;;;29.50;71.00;;;;;;5033268;28;20048;-65
2021/07/02 07:40:13;;;;;;;10.05;5.05;;;29.20;69.10;;;;;;5028760;28;20033;-65
2021/07/02 07:42:39;;;;;;;7.53;4.65;;;28.70;68.00;;;;;;5028267;28;20133;-64
2021/07/02 07:45:05;;;;;;;6.93;4.32;;;28.60;70.20;;;;;;5029424;28;20440;-65
2021/07/02 07:47:31;;;;;;;7.07;3.72;;;28.40;70.50;;;;;;5031068;28;20029;-65
2021/07/02 07:49:56;;;;;;;4.68;3.40;;;28.30;68.90;;;;;;5029903;28;20014;-65
2021/07/02 07:52:36;;;;;;;6.07;3.45;;;28.60;66.40;;;;;;5024404;28;20386;-65
2021/07/02 07:55:03;;;;;;;5.97;3.67;;;28.40;65.40;;;;;;5025828;28;20084;-65
2021/07/02 07:57:28;;;;;;;6.32;3.42;;;27.20;64.80;;;;;;5029211;28;20502;-65
2021/07/02 07:59:54;;;;;;;7.20;3.00;;;27.40;65.90;;;;;;5030733;28;20021;-65
2021/07/02 08:02:20;;;;;;;5.82;2.78;;;28.60;69.30;;;;;;5008905;28;20042;-64
2021/07/02 08:04:45;;;;;;;4.65;2.85;;;28.10;62.10;;;;;;5030856;28;20032;-65
2021/07/02 08:07:11;;;;;;;5.40;2.92;;;27.30;65.20;;;;;;5021887;28;20087;-61
2021/07/02 08:09:36;;;;;;;4.82;2.85;;;26.70;66.80;;;;;;5012783;28;20033;-65
2021/07/02 08:12:02;;;;;;;5.25;3.28;;;27.10;64.50;;;;;;5024887;28;20734;-65
2021/07/02 08:14:28;;;;;;;3.80;2.50;;;27.30;62.80;;;;;;5028430;28;20513;-64
2021/07/02 08:16:53;;;;;;;4.05;2.53;;;28.90;64.40;;;;;;5027096;28;20036;-64
2021/07/02 08:19:19;;;;;;;4.60;2.53;;;30.80;61.20;;;;;;5027924;28;20183;-65
2021/07/02 08:21:45;;;;;;;5.15;3.10;;;29.80;59.30;;;;;;5031062;28;20040;-65
2021/07/02 08:24:10;;;;;;;6.93;2.80;;;29.70;58.80;;;;;;5024665;28;20032;-65
2021/07/02 08:26:36;;;;;;;3.08;2.75;;;30.70;62.70;;;;;;5019250;28;20121;-66
2021/07/02 08:31:45;;;;;;;6.53;2.83;;;29.20;57.20;;;;;;5026050;28;20547;-65
2021/07/02 08:34:11;;;;;;;7.80;2.83;;;28.70;56.20;;;;;;5028563;28;20022;-65
2021/07/02 08:36:36;;;;;;;4.00;3.03;;;28.50;59.10;;;;;;5027829;28;20035;-65
2021/07/02 08:39:03;;;;;;;4.88;2.83;;;28.20;58.90;;;;;;5029106;28;20100;-66
2021/07/02 08:41:29;;;;;;;4.35;2.75;;;28.40;60.10;;;;;;5025376;28;20407;-65
2021/07/02 08:43:55;;;;;;;6.47;2.92;;;28.40;60.60;;;;;;5019777;28;20527;-65
2021/07/02 08:46:21;;;;;;;4.90;3.00;;;29.40;59.10;;;;;;5032876;28;20038;-65
2021/07/02 08:48:50;;;;;;;4.40;2.85;;;28.80;60.10;;;;;;5034050;28;20030;-65
2021/07/02 08:51:15;;;;;;;4.63;3.47;;;28.20;59.90;;;;;;5042170;28;20516;-65
2021/07/02 08:53:42;;;;;;;5.80;3.53;;;27.80;59.30;;;;;;5039820;28;20061;-65
2021/07/02 08:56:08;;;;;;;3.72;2.92;;;26.70;65.60;;;;;;5037109;28;20665;-65
2021/07/02 08:58:35;;;;;;;7.35;3.30;;;26.40;64.30;;;;;;5021951;28;20028;-65
2021/07/02 09:01:07;;;;;;;7.97;3.50;;;26.00;65.00;;;;;;5025093;28;20021;-64
2021/07/02 09:03:36;;;;;;;4.80;3.42;;;26.50;65.80;;;;;;5005573;28;20052;-64
2021/07/02 09:06:18;;;;;;;5.43;3.20;;;25.80;69.00;;;;;;5029890;28;20021;-65
2021/07/02 09:09:06;;;;;;;7.60;3.65;;;26.00;66.00;;;;;;5011311;28;20029;-65
2021/07/02 09:11:35;;;;;;;6.65;3.10;;;26.60;64.70;;;;;;5024778;28;20033;-65
2021/07/02 09:14:03;;;;;;;5.03;2.97;;;26.60;63.90;;;;;;5011467;28;20034;-64
2021/07/02 09:16:38;;;;;;;5.38;3.75;;;26.80;65.20;;;;;;5007818;28;20022;-65
2021/07/02 09:19:24;;;;;;;5.65;3.30;;;26.50;62.00;;;;;;5026624;28;20013;-64
2021/07/02 09:21:51;;;;;;;8.18;3.25;;;27.40;64.70;;;;;;5023568;28;20558;-65
2021/07/02 09:24:40;;;;;;;5.18;3.38;;;27.70;60.40;;;;;;5028864;28;20116;-65
2021/07/02 09:27:24;;;;;;;5.32;3.17;;;29.20;62.20;;;;;;5029399;28;20502;-64
2021/07/02 09:30:12;;;;;;;6.93;3.03;;;31.10;60.30;;;;;;5010046;28;20068;-65
2021/07/02 09:32:40;;;;;;;5.72;3.08;;;32.40;56.90;;;;;;5008732;28;20029;-65
2021/07/02 09:35:06;;;;;;;5.63;2.90;;;31.00;57.20;;;;;;5037757;28;20080;-64
2021/07/02 09:37:38;;;;;;;7.53;3.05;;;30.30;57.20;;;;;;5025836;28;20017;-64
2021/07/02 09:40:22;;;;;;;6.97;3.47;;;29.10;58.10;;;;;;5039664;28;20021;-64
2021/07/02 09:43:10;;;;;;;5.15;3.20;;;29.50;59.70;;;;;;5024397;28;20021;-64
2021/07/02 09:45:48;;;;;;;5.47;3.28;;;30.10;57.50;;;;;;5025316;28;20039;-64
2021/07/02 09:48:16;;;;;;;5.10;2.85;;;29.30;60.90;;;;;;5034085;28;20098;-63
2021/07/02 09:50:52;;;;;;;6.40;3.60;;;28.10;59.50;;;;;;5042235;28;20418;-65
2021/07/02 09:53:27;;;;;;;4.22;2.25;;;27.60;60.70;;;;;;5037559;28;20071;-64
2021/07/02 09:55:55;;;;;;;5.57;3.05;;;28.00;60.10;;;;;;5037896;28;21190;-64
2021/07/02 09:58:24;;;;;;;3.78;2.40;;;27.20;60.00;;;;;;5034957;28;20037;-64
2021/07/02 10:00:59;;;;;;;3.58;2.70;;;27.00;64.20;;;;;;5037890;28;20018;-65
2021/07/02 10:03:27;;;;;;;4.47;2.72;;;27.20;61.00;;;;;;5035882;28;20502;-64
2021/07/02 10:05:58;;;;;;;5.30;2.88;;;27.70;61.10;;;;;;5039136;28;20034;-65
2021/07/02 10:08:32;;;;;;;5.45;3.10;;;27.90;61.70;;;;;;5015372;28;20030;-65
2021/07/02 10:10:59;;;;;;;5.75;2.60;;;28.20;62.80;;;;;;5039495;28;20033;-63
2021/07/02 10:13:32;;;;;;;4.72;2.80;;;27.30;61.80;;;;;;5023093;28;20503;-64
2021/07/02 10:15:58;;;;;;;3.17;2.08;;;26.90;59.90;;;;;;5038143;28;20052;-64
2021/07/02 10:18:27;;;;;;;5.55;2.67;;;26.30;62.10;;;;;;5033417;28;20029;-64
2021/07/02 10:20:55;;;;;;;7.35;2.38;;;26.30;64.30;;;;;;5031837;28;20025;-64
2021/07/02 10:23:41;;;;;;;8.13;3.03;;;26.10;65.60;;;;;;5015867;28;20033;-64
2021/07/02 10:26:08;;;;;;;3.80;2.42;;;25.70;64.30;;;;;;5038272;28;20052;-71
2021/07/02 10:28:37;;;;;;;3.50;2.58;;;25.80;66.10;;;;;;5038523;28;20021;-64
2021/07/02 10:31:06;;;;;;;7.13;2.45;;;25.80;66.00;;;;;;5013727;28;20026;-64
2021/07/02 10:33:34;;;;;;;5.28;3.03;;;25.40;64.70;;;;;;5028635;28;20053;-63
2021/07/02 10:36:05;;;;;;;5.50;2.97;;;25.60;66.00;;;;;;5023303;28;20025;-64
2021/07/02 10:38:39;;;;;;;5.10;2.72;;;25.70;65.00;;;;;;5023659;28;21067;-65
2021/07/02 10:41:32;;;;;;;5.30;3.03;;;26.10;65.60;;;;;;5027745;28;20050;-65
2021/07/02 10:44:14;;;;;;;5.88;2.88;;;25.50;62.30;;;;;;5024665;28;20030;-65
2021/07/02 10:46:46;;;;;;;6.90;2.78;;;25.80;66.60;;;;;;5012127;28;20021;-65
2021/07/02 10:49:13;;;;;;;4.63;2.83;;;26.00;63.30;;;;;;5031155;28;20025;-63
2021/07/02 10:51:48;;;;;;;5.95;3.35;;;24.90;64.10;;;;;;5032920;28;20033;-65
2021/07/02 10:54:24;;;;;;;7.43;3.00;;;25.30;62.60;;;;;;5030348;28;20021;-64
2021/07/02 10:56:49;;;;;;;6.80;3.53;;;25.20;63.10;;;;;;5011265;28;20044;-65
2021/07/02 10:59:16;;;;;;;8.95;3.20;;;25.10;67.10;;;;;;5031206;28;20100;-63
2021/07/02 11:02:06;;;;;;;7.13;3.00;;;25.10;65.40;;;;;;5029275;28;20064;-65
2021/07/02 11:04:33;;;;;;;6.13;4.13;;;25.20;65.30;;;;;;5025562;28;20033;-64
2021/07/02 11:06:59;;;;;;;4.88;3.33;;;25.20;60.60;;;;;;5027870;28;20029;-65
2021/07/02 11:09:55;;;;;;;3.28;2.80;;;24.80;61.00;;;;;;5030433;28;20028;-65
2021/07/02 11:12:32;;;;;;;5.72;3.35;;;24.40;63.40;;;;;;5020059;28;20037;-65
2021/07/02 11:14:58;;;;;;;3.13;2.47;;;24.60;65.60;;;;;;5031603;28;20545;-65
2021/07/02 11:17:45;;;;;;;2.85;2.30;;;24.70;63.70;;;;;;5023693;28;20025;-64
2021/07/02 11:20:21;;;;;;;4.00;2.42;;;24.40;62.20;;;;;;5021022;28;20568;-65
2021/07/02 11:22:47;;;;;;;3.17;2.38;;;24.70;65.00;;;;;;5027546;28;20022;-65
2021/07/02 11:25:15;;;;;;;3.15;2.38;;;24.80;64.50;;;;;;5030040;28;20025;-61
2021/07/02 11:27:44;;;;;;;4.10;2.03;;;25.00;63.50;;;;;;5026105;28;20452;-65
2021/07/02 11:30:36;;;;;;;4.10;2.63;;;25.50;65.80;;;;;;5029053;28;20029;-65
2021/07/02 11:33:15;;;;;;;4.95;2.45;;;25.60;63.20;;;;;;5031746;28;20029;-63
2021/07/02 11:35:44;;;;;;;4.75;2.70;;;25.40;60.60;;;;;;5027765;28;20029;-63
2021/07/02 11:38:13;;;;;;;8.75;3.05;;;24.80;65.90;;;;;;5030084;28;20022;-63
2021/07/02 11:40:40;;;;;;;6.25;3.38;;;24.40;65.40;;;;;;5027519;28;20021;-64
2021/07/02 11:43:08;;;;;;;4.90;2.78;;;24.50;65.50;;;;;;5029432;28;20056;-64
2021/07/02 11:45:48;;;;;;;4.85;3.20;;;25.10;65.70;;;;;;5026312;28;20029;-63
2021/07/02 11:48:20;;;;;;;5.28;2.70;;;25.10;63.50;;;;;;5021110;28;20635;-62
2021/07/02 11:51:01;;;;;;;6.00;2.92;;;25.60;64.00;;;;;;5006058;28;20033;-64
2021/07/02 11:53:37;;;;;;;10.00;3.60;;;25.50;64.80;;;;;;5026749;28;20029;-63
2021/07/02 11:56:33;;;;;;;5.07;3.67;;;25.00;64.00;;;;;;5035229;28;20106;-64
2021/07/02 11:59:07;;;;;;;6.43;3.70;;;25.30;67.10;;;;;;5033953;28;20118;-63
2021/07/02 12:01:38;;;;;;;6.75;3.72;;;25.20;64.60;;;;;;5037395;28;20036;-66
2021/07/02 12:04:16;;;;;;;5.95;3.55;;;24.90;65.10;;;;;;5030517;28;20022;-63
2021/07/02 12:06:45;;;;;;;8.63;3.30;;;25.10;64.80;;;;;;5021014;28;20044;-63
2021/07/02 12:09:12;;;;;;;7.55;3.55;;;25.60;65.90;;;;;;5040246;28;20029;-64
2021/07/02 12:11:46;;;;;;;5.95;3.97;;;25.70;63.80;;;;;;5028748;28;20159;-64
2021/07/02 12:14:19;;;;;;;4.75;3.58;;;25.40;64.00;;;;;;5034890;28;20072;-64
2021/07/02 12:16:49;;;;;;;9.03;4.50;;;24.60;69.10;;;;;;5012049;28;20022;-65
2021/07/02 12:19:18;;;;;;;10.10;3.92;;;24.40;66.50;;;;;;5026150;28;20147;-64
2021/07/02 12:21:55;;;;;;;7.60;4.28;;;24.60;67.70;;;;;;5031167;28;20036;-64
2021/07/02 12:24:29;;;;;;;6.95;3.72;;;25.00;67.30;;;;;;5025740;28;20372;-64
2021/07/02 12:27:00;;;;;;;7.05;3.55;;;25.00;67.30;;;;;;5037745;28;20025;-64
2021/07/02 12:29:27;;;;;;;5.28;4.05;;;25.20;65.90;;;;;;5026098;28;20052;-65
2021/07/02 12:31:59;;;;;;;6.72;4.63;;;24.60;67.80;;;;;;5037723;28;20017;-64
2021/07/02 12:34:46;;;;;;;4.65;3.88;;;24.10;65.50;;;;;;5036956;28;20034;-63
2021/07/02 12:37:24;;;;;;;6.68;4.28;;;24.50;67.00;;;;;;5039287;28;20052;-58
2021/07/02 12:39:55;;;;;;;5.18;3.80;;;24.50;68.00;;;;;;5037359;28;20026;-64
2021/07/02 12:42:25;;;;;;;8.25;4.70;;;24.60;68.50;;;;;;5037368;28;20045;-64
2021/07/02 12:44:53;;;;;;;6.00;4.25;;;24.50;67.00;;;;;;5034475;28;20029;-64